createdAt,value
2022-12-29T00:01:39.582Z,98236.06
2022-12-29T00:04:12.927Z,98229.69
2022-12-29T00:06:45.034Z,98229.47
2022-12-29T00:09:13.288Z,98233.06
2022-12-29T00:11:40.280Z,98231.28
2022-12-29T00:14:26.342Z,98226.88
2022-12-29T00:16:53.016Z,98222.72
2022-12-29T00:19:38.124Z,98221.50
2022-12-29T00:22:23.542Z,98225.31
2022-12-29T00:25:08.352Z,98223.91
2022-12-29T00:27:53.402Z,98221.91
2022-12-29T00:30:40.659Z,98220.75
2022-12-29T00:33:34.519Z,98211.16
2022-12-29T00:36:09.859Z,98206.97
2022-12-29T00:38:59.598Z,98211.34
2022-12-29T00:41:44.383Z,98207.59
2022-12-29T00:44:12.921Z,98211.34
2022-12-29T00:46:42.359Z,98212.16
2022-12-29T00:49:30.289Z,98218.31
2022-12-29T00:52:02.255Z,98213.75
2022-12-29T00:54:33.515Z,98216.91
2022-12-29T00:57:00.864Z,98213.53
2022-12-29T00:59:27.658Z,98203.56
2022-12-29T01:01:55.316Z,98200.56
2022-12-29T01:04:23.429Z,98195.97
2022-12-29T01:06:50.346Z,98187.97
2022-12-29T01:09:36.420Z,98200.72
2022-12-29T01:12:03.943Z,98186.19
2022-12-29T01:14:30.783Z,98187.16
2022-12-29T01:16:58.070Z,98176.00
2022-12-29T01:19:25.678Z,98182.38
2022-12-29T01:21:52.377Z,98178.00
2022-12-29T01:24:20.403Z,98172.41
2022-12-29T01:26:47.460Z,98167.22
2022-12-29T01:29:14.300Z,98173.16
2022-12-29T01:31:40.928Z,98160.41
2022-12-29T01:34:07.878Z,98157.03
2022-12-29T01:36:34.673Z,98150.41
2022-12-29T01:39:01.116Z,98156.19
2022-12-29T01:41:27.978Z,98160.19
2022-12-29T01:44:01.756Z,98147.22
2022-12-29T01:46:35.663Z,98151.38
2022-12-29T01:49:22.957Z,98141.19
2022-12-29T01:51:51.048Z,98140.78
2022-12-29T01:54:41.734Z,98148.16
2022-12-29T01:57:37.840Z,98144.56
2022-12-29T02:00:09.178Z,98148.34
2022-12-29T02:02:36.324Z,98143.53
2022-12-29T02:05:10.483Z,98145.13
2022-12-29T02:07:38.587Z,98146.94
2022-12-29T02:10:05.803Z,98143.91
2022-12-29T02:12:32.230Z,98145.91
2022-12-29T02:15:02.031Z,98148.44
2022-12-29T02:17:39.971Z,98143.25
2022-12-29T02:20:19.412Z,98141.88
2022-12-29T02:23:04.694Z,98137.88
2022-12-29T02:25:49.909Z,98136.84
2022-12-29T02:28:35.192Z,98125.50
2022-12-29T02:31:32.925Z,98125.09
2022-12-29T02:34:34.438Z,98130.91
2022-12-29T02:37:19.631Z,98131.50
2022-12-29T02:40:04.185Z,98134.94
2022-12-29T02:42:35.342Z,98138.50
2022-12-29T02:45:13.866Z,98143.09
2022-12-29T02:47:49.226Z,98138.66
2022-12-29T02:50:24.588Z,98131.50
2022-12-29T02:52:59.025Z,98133.13
2022-12-29T02:55:25.522Z,98133.16
2022-12-29T02:58:23.853Z,98134.75
2022-12-29T03:01:20.708Z,98133.78
2022-12-29T03:04:02.433Z,98114.06
2022-12-29T03:06:55.567Z,98118.47
2022-12-29T03:09:36.979Z,98111.47
2022-12-29T03:12:49.304Z,98106.88
2022-12-29T03:15:43.235Z,98106.88
2022-12-29T03:18:26.089Z,98109.41
2022-12-29T03:21:01.311Z,98111.63
2022-12-29T03:23:30.276Z,98109.03
2022-12-29T03:26:02.506Z,98108.81
2022-12-29T03:28:36.080Z,98095.06
2022-12-29T03:31:05.312Z,98101.44
2022-12-29T03:33:33.415Z,98108.56
2022-12-29T03:36:04.344Z,98096.44
2022-12-29T03:38:36.923Z,98101.03
2022-12-29T03:41:08.170Z,98098.44
2022-12-29T03:43:34.969Z,98099.63
2022-12-29T03:46:01.382Z,98093.44
2022-12-29T03:48:27.774Z,98092.63
2022-12-29T03:50:54.434Z,98099.19
2022-12-29T03:53:20.929Z,98096.72
2022-12-29T03:55:47.533Z,98089.56
2022-12-29T03:58:14.085Z,98095.34
2022-12-29T04:00:40.722Z,98094.75
2022-12-29T04:03:07.190Z,98094.56
2022-12-29T04:05:33.601Z,98103.31
2022-12-29T04:08:00.858Z,98095.50
2022-12-29T04:10:27.266Z,98087.50
2022-12-29T04:12:53.642Z,98091.09
2022-12-29T04:15:20.097Z,98097.50
2022-12-29T04:17:46.472Z,98114.28
2022-12-29T04:20:31.439Z,98115.13
2022-12-29T04:23:05.498Z,98100.41
2022-12-29T04:25:32.925Z,98106.56
2022-12-29T04:27:59.417Z,98109.72
2022-12-29T04:30:26.282Z,98107.13
2022-12-29T04:32:54.352Z,98101.53
2022-12-29T04:35:20.729Z,98105.91
2022-12-29T04:37:47.123Z,98098.34
2022-12-29T04:40:13.657Z,98098.53
2022-12-29T04:42:40.085Z,98106.94
2022-12-29T04:45:07.177Z,98102.53
2022-12-29T04:47:33.787Z,98094.56
2022-12-29T04:50:01.106Z,98098.78
2022-12-29T04:52:27.648Z,98091.41
2022-12-29T04:54:54.007Z,98092.63
2022-12-29T04:57:20.452Z,98094.81
2022-12-29T04:59:46.878Z,98097.47
2022-12-29T05:02:13.287Z,98103.25
2022-12-29T05:04:40.836Z,98111.41
2022-12-29T05:07:07.301Z,98097.84
2022-12-29T05:09:33.991Z,98110.38
2022-12-29T05:12:00.680Z,98110.53
2022-12-29T05:14:27.275Z,98111.69
2022-12-29T05:16:53.741Z,98103.88
2022-12-29T05:19:20.315Z,98101.69
2022-12-29T05:21:46.707Z,98116.47
2022-12-29T05:24:13.075Z,98108.91
2022-12-29T05:26:39.497Z,98097.94
2022-12-29T05:29:05.895Z,98098.97
2022-12-29T05:31:32.347Z,98078.63
2022-12-29T05:33:58.724Z,98076.81
2022-12-29T05:36:25.185Z,98072.25
2022-12-29T05:38:51.576Z,98079.06
2022-12-29T05:41:18.103Z,98080.50
2022-12-29T05:43:44.813Z,98085.16
2022-12-29T05:46:11.801Z,98080.38
2022-12-29T05:48:38.498Z,98080.44
2022-12-29T05:51:05.259Z,98085.22
2022-12-29T05:53:31.668Z,98084.66
2022-12-29T05:55:58.143Z,98085.06
2022-12-29T05:58:24.561Z,98084.66
2022-12-29T06:00:51.634Z,98078.69
2022-12-29T06:03:18.280Z,98087.66
2022-12-29T06:05:47.951Z,98077.31
2022-12-29T06:08:14.509Z,98073.19
2022-12-29T06:10:40.985Z,98092.91
2022-12-29T06:13:07.695Z,98090.09
2022-12-29T06:15:34.614Z,98082.50
2022-12-29T06:18:01.408Z,98077.31
2022-12-29T06:20:28.454Z,98066.75
2022-12-29T06:22:54.815Z,98076.94
2022-12-29T06:25:21.322Z,98080.34
2022-12-29T06:27:47.718Z,98071.75
2022-12-29T06:30:14.213Z,98088.13
2022-12-29T06:32:40.687Z,98086.09
2022-12-29T06:35:07.700Z,98103.09
2022-12-29T06:37:34.072Z,98099.09
2022-12-29T06:40:00.490Z,98102.28
2022-12-29T06:42:26.945Z,98109.50
2022-12-29T06:44:53.352Z,98098.91
2022-12-29T06:47:19.845Z,98103.91
2022-12-29T06:49:46.294Z,98108.28
2022-12-29T06:52:13.473Z,98099.69
2022-12-29T06:54:40.687Z,98096.34
2022-12-29T06:57:07.400Z,98096.13
2022-12-29T06:59:33.833Z,98087.75
2022-12-29T07:02:02.884Z,98087.16
2022-12-29T07:04:29.946Z,98087.16
2022-12-29T07:06:56.370Z,98090.13
2022-12-29T07:09:22.913Z,98092.91
2022-12-29T07:11:49.344Z,98089.34
2022-12-29T07:14:15.736Z,98090.53
2022-12-29T07:16:42.220Z,98103.50
2022-12-29T07:19:08.667Z,98108.53
2022-12-29T07:21:35.046Z,98110.88
2022-12-29T07:24:01.525Z,98115.88
2022-12-29T07:26:32.936Z,98115.88
2022-12-29T07:29:03.791Z,98117.09
2022-12-29T07:31:30.325Z,98119.47
2022-12-29T07:33:56.820Z,98119.03
2022-12-29T07:36:23.308Z,98125.03
2022-12-29T07:38:49.709Z,98121.25
2022-12-29T07:41:16.077Z,98118.44
2022-12-29T07:43:47.214Z,98127.38
2022-12-29T07:46:53.929Z,98123.03
2022-12-29T07:48:59.967Z,98133.75
2022-12-29T07:51:26.384Z,98118.59
2022-12-29T07:53:52.815Z,98116.19
2022-12-29T07:56:19.387Z,98109.56
2022-12-29T07:58:45.752Z,98116.16
2022-12-29T08:01:12.178Z,98121.72
2022-12-29T08:03:39.313Z,98126.47
2022-12-29T08:06:05.941Z,98119.19
2022-12-29T08:08:32.327Z,98119.56
2022-12-29T08:10:58.805Z,98125.16
2022-12-29T08:13:25.198Z,98127.28
2022-12-29T08:15:51.657Z,98133.41
2022-12-29T08:18:18.124Z,98136.00
2022-12-29T08:20:44.519Z,98136.97
2022-12-29T08:23:11.314Z,98134.97
2022-12-29T08:25:37.748Z,98127.97
2022-12-29T08:28:04.176Z,98131.53
2022-12-29T08:30:30.572Z,98137.47
2022-12-29T08:32:57.058Z,98127.03
2022-12-29T08:35:23.464Z,98123.44
2022-12-29T08:37:49.841Z,98110.19
2022-12-29T08:40:16.231Z,98131.13
2022-12-29T08:42:42.660Z,98125.47
2022-12-29T08:45:09.779Z,98125.41
2022-12-29T08:47:36.499Z,98125.56
2022-12-29T08:50:03.516Z,98129.47
2022-12-29T08:52:29.955Z,98124.06
2022-12-29T08:54:56.382Z,98132.00
2022-12-29T08:57:22.783Z,98124.56
2022-12-29T08:59:50.310Z,98127.91
2022-12-29T09:02:23.652Z,98128.69
2022-12-29T09:04:50.960Z,98133.47
2022-12-29T09:07:17.354Z,98128.47
2022-12-29T09:09:43.747Z,98135.63
2022-12-29T09:12:10.239Z,98124.44
2022-12-29T09:14:36.621Z,98122.63
2022-12-29T09:17:21.775Z,98129.78
2022-12-29T09:19:48.172Z,98131.53
2022-12-29T09:22:14.560Z,98126.69
2022-12-29T09:24:40.945Z,98126.81
2022-12-29T09:27:07.390Z,98125.00
2022-12-29T09:29:33.764Z,98133.97
2022-12-29T09:32:00.556Z,98132.75
2022-12-29T09:34:33.740Z,98132.22
2022-12-29T09:37:00.245Z,98123.13
2022-12-29T09:39:26.889Z,98131.88
2022-12-29T09:42:11.235Z,98136.41
2022-12-29T09:44:49.843Z,98133.16
2022-12-29T09:47:20.040Z,98122.28
2022-12-29T09:49:53.676Z,98123.03
2022-12-29T09:52:30.498Z,98122.00
2022-12-29T09:55:10.443Z,98116.91
2022-12-29T09:57:42.831Z,98114.81
2022-12-29T10:00:14.465Z,98111.53
2022-12-29T10:02:48.015Z,98118.91
2022-12-29T10:05:43.724Z,98114.66
2022-12-29T10:08:17.633Z,98116.16
2022-12-29T10:10:54.939Z,98116.28
2022-12-29T10:13:27.227Z,98104.94
2022-12-29T10:16:07.638Z,98114.38
2022-12-29T10:19:05.919Z,98111.88
2022-12-29T10:22:17.192Z,98100.91
2022-12-29T10:24:48.302Z,98112.81
2022-12-29T10:27:17.785Z,98112.47
2022-12-29T10:29:49.621Z,98103.97
2022-12-29T10:32:38.872Z,98102.50
2022-12-29T10:35:19.804Z,98092.66
2022-12-29T10:37:54.216Z,98095.13
2022-12-29T10:40:28.264Z,98083.38
2022-12-29T10:42:57.572Z,98090.13
2022-12-29T10:45:31.810Z,98081.16
2022-12-29T10:48:07.152Z,98079.88
2022-12-29T10:50:34.013Z,98068.09
2022-12-29T10:53:03.960Z,98073.47
2022-12-29T10:55:36.147Z,98074.19
2022-12-29T10:58:05.934Z,98075.09
2022-12-29T11:00:34.201Z,98073.16
2022-12-29T11:03:37.428Z,98073.41
2022-12-29T11:06:10.047Z,98077.72
2022-12-29T11:08:48.545Z,98072.16
2022-12-29T11:11:24.535Z,98067.88
2022-12-29T11:13:56.263Z,98069.47
2022-12-29T11:16:35.524Z,98059.50
2022-12-29T11:19:02.411Z,98066.31
2022-12-29T11:21:32.646Z,98082.50
2022-12-29T11:24:06.986Z,98079.88
2022-12-29T11:26:35.128Z,98073.09
2022-12-29T11:29:16.796Z,98066.72
2022-12-29T11:31:49.509Z,98066.72
2022-12-29T11:34:26.022Z,98067.19
2022-12-29T11:37:01.931Z,98074.00
2022-12-29T11:39:36.808Z,98080.69
2022-12-29T11:42:04.532Z,98082.75
2022-12-29T11:44:38.364Z,98071.53
2022-12-29T11:47:14.380Z,98089.44
2022-12-29T11:49:40.907Z,98091.25
2022-12-29T11:52:08.323Z,98089.31
2022-12-29T11:54:38.936Z,98086.53
2022-12-29T11:57:13.152Z,98101.81
2022-12-29T11:59:43.807Z,98103.19
2022-12-29T12:02:30.073Z,98097.19
2022-12-29T12:05:28.314Z,98092.09
2022-12-29T12:08:24.727Z,98084.69
2022-12-29T12:10:59.325Z,98087.22
2022-12-29T12:13:30.722Z,98089.25
2022-12-29T12:16:07.021Z,98077.13
2022-12-29T12:18:46.875Z,98074.41
2022-12-29T12:21:33.193Z,98078.59
2022-12-29T12:24:16.236Z,98077.94
2022-12-29T12:27:11.347Z,98081.53
2022-12-29T12:29:37.842Z,98076.19
2022-12-29T12:32:16.116Z,98075.41
2022-12-29T12:34:45.455Z,98083.56
2022-12-29T12:37:46.247Z,98070.16
2022-12-29T12:40:31.092Z,98087.31
2022-12-29T12:43:36.125Z,98093.78
2022-12-29T12:46:16.740Z,98092.88
2022-12-29T12:49:02.363Z,98101.28
2022-12-29T12:51:50.090Z,98080.63
2022-12-29T12:54:26.881Z,98080.84
2022-12-29T12:57:01.808Z,98083.81
2022-12-29T12:59:46.884Z,98086.88
2022-12-29T13:02:47.496Z,98092.97
2022-12-29T13:05:13.947Z,98093.53
2022-12-29T13:08:14.465Z,98084.38
2022-12-29T13:10:54.644Z,98082.91
2022-12-29T13:13:46.094Z,98082.56
2022-12-29T13:16:35.652Z,98091.50
2022-12-29T13:19:39.751Z,98093.78
2022-12-29T13:22:24.696Z,98100.13
2022-12-29T13:25:03.061Z,98096.41
2022-12-29T13:28:06.175Z,98092.19
2022-12-29T13:30:46.610Z,98085.84
2022-12-29T13:33:21.657Z,98087.06
2022-12-29T13:36:05.970Z,98090.81
2022-12-29T13:38:39.989Z,98083.56
2022-12-29T13:41:15.038Z,98093.19
2022-12-29T13:43:45.315Z,98088.88
2022-12-29T13:46:19.519Z,98090.91
2022-12-29T13:48:53.758Z,98084.03
2022-12-29T13:51:27.656Z,98090.84
2022-12-29T13:54:31.716Z,98097.50
2022-12-29T13:57:24.217Z,98101.16
2022-12-29T14:00:13.561Z,98097.72
2022-12-29T14:02:46.456Z,98098.41
2022-12-29T14:05:33.003Z,98109.88
2022-12-29T14:08:02.002Z,98114.06
2022-12-29T14:10:34.982Z,98114.19
2022-12-29T14:13:13.411Z,98111.44
2022-12-29T14:15:46.524Z,98113.72
2022-12-29T14:18:24.580Z,98114.38
2022-12-29T14:21:09.741Z,98117.44
2022-12-29T14:23:43.399Z,98115.97
2022-12-29T14:26:17.131Z,98118.44
2022-12-29T14:28:50.154Z,98120.38
2022-12-29T14:31:41.550Z,98123.44
2022-12-29T14:34:08.359Z,98123.31
2022-12-29T14:36:34.739Z,98111.41
2022-12-29T14:39:01.739Z,98116.47
2022-12-29T14:41:28.130Z,98094.25
2022-12-29T14:43:59.303Z,98097.50
2022-12-29T14:46:44.355Z,98114.00
2022-12-29T14:49:19.456Z,98096.81
2022-12-29T14:51:46.925Z,98107.06
2022-12-29T14:54:50.601Z,98108.84
2022-12-29T14:57:30.839Z,98101.63
2022-12-29T15:00:05.324Z,98112.91
2022-12-29T15:02:39.650Z,98095.16
2022-12-29T15:05:20.774Z,98108.53
2022-12-29T15:07:47.840Z,98101.47
2022-12-29T15:10:18.630Z,98102.06
2022-12-29T15:12:52.666Z,98108.84
2022-12-29T15:15:29.351Z,98108.59
2022-12-29T15:17:55.945Z,98106.81
2022-12-29T15:20:25.337Z,98109.88
2022-12-29T15:23:03.257Z,98107.06
2022-12-29T15:25:29.817Z,98113.25
2022-12-29T15:28:02.319Z,98117.09
2022-12-29T15:30:30.059Z,98109.38
2022-12-29T15:32:56.796Z,98112.63
2022-12-29T15:35:37.899Z,98104.75
2022-12-29T15:38:17.596Z,98105.38
2022-12-29T15:40:47.776Z,98106.16
2022-12-29T15:43:42.039Z,98101.97
2022-12-29T15:46:20.127Z,98110.22
2022-12-29T15:48:48.661Z,98114.13
2022-12-29T15:51:29.040Z,98105.84
2022-12-29T15:53:56.289Z,98109.69
2022-12-29T15:56:22.870Z,98099.00
2022-12-29T15:58:54.784Z,98104.03
2022-12-29T16:01:28.223Z,98106.22
2022-12-29T16:03:55.205Z,98105.03
2022-12-29T16:07:04.852Z,98105.31
2022-12-29T16:09:37.110Z,98113.69
2022-12-29T16:12:18.137Z,98119.06
2022-12-29T16:14:48.327Z,98123.63
2022-12-29T16:17:20.477Z,98135.16
2022-12-29T16:19:56.005Z,98130.53
2022-12-29T16:22:35.161Z,98132.22
2022-12-29T16:25:20.071Z,98123.03
2022-12-29T16:27:46.687Z,98126.22
2022-12-29T16:30:33.098Z,98128.81
2022-12-29T16:33:02.953Z,98139.00
2022-12-29T16:35:40.350Z,98136.41
2022-12-29T16:38:17.798Z,98130.63
2022-12-29T16:41:30.211Z,98134.53
2022-12-29T16:44:32.468Z,98140.69
2022-12-29T16:47:19.164Z,98143.81
2022-12-29T16:49:52.361Z,98141.66
2022-12-29T16:52:33.904Z,98152.72
2022-12-29T16:55:02.268Z,98154.44
2022-12-29T16:57:34.953Z,98152.75
2022-12-29T17:00:06.020Z,98170.31
2022-12-29T17:02:34.675Z,98173.38
2022-12-29T17:05:02.354Z,98176.53
2022-12-29T17:07:29.034Z,98174.53
2022-12-29T17:09:55.640Z,98186.41
2022-12-29T17:12:26.259Z,98173.59
2022-12-29T17:14:52.866Z,98178.81
2022-12-29T17:17:45.914Z,98188.22
2022-12-29T17:20:22.299Z,98194.97
2022-12-29T17:22:49.777Z,98197.72
2022-12-29T17:25:19.735Z,98198.34
2022-12-29T17:27:52.355Z,98193.72
2022-12-29T17:30:25.046Z,98199.78
2022-12-29T17:33:00.976Z,98203.97
2022-12-29T17:35:28.238Z,98219.84
2022-12-29T17:37:54.983Z,98217.78
2022-12-29T17:40:31.200Z,98225.06
2022-12-29T17:42:59.502Z,98242.28
2022-12-29T17:45:31.523Z,98245.66
2022-12-29T17:48:01.777Z,98212.16
2022-12-29T17:50:30.836Z,98195.63
2022-12-29T17:53:01.659Z,98180.63
2022-12-29T17:55:34.826Z,98171.38
2022-12-29T17:58:23.683Z,98171.22
2022-12-29T18:00:53.960Z,98177.50
2022-12-29T18:03:37.742Z,98188.69
2022-12-29T18:06:08.171Z,98195.69
2022-12-29T18:08:39.975Z,98200.53
2022-12-29T18:11:21.114Z,98200.19
2022-12-29T18:13:47.571Z,98209.78
2022-12-29T18:16:14.462Z,98222.69
2022-12-29T18:18:41.204Z,98225.50
2022-12-29T18:21:22.872Z,98226.16
2022-12-29T18:23:50.155Z,98230.28
2022-12-29T18:26:23.975Z,98235.44
2022-12-29T18:28:54.729Z,98224.13
2022-12-29T18:31:32.933Z,98228.88
2022-12-29T18:34:01.410Z,98232.63
2022-12-29T18:36:28.960Z,98240.81
2022-12-29T18:38:55.426Z,98247.00
2022-12-29T18:41:29.948Z,98243.00
2022-12-29T18:43:58.090Z,98239.63
2022-12-29T18:46:24.656Z,98230.44
2022-12-29T18:48:52.302Z,98233.97
2022-12-29T18:51:23.320Z,98231.56
2022-12-29T18:53:52.262Z,98231.41
2022-12-29T18:56:18.669Z,98241.59
2022-12-29T18:58:45.156Z,98234.22
2022-12-29T19:01:21.461Z,98241.59
2022-12-29T19:03:49.418Z,98239.97
2022-12-29T19:06:15.912Z,98242.03
2022-12-29T19:08:42.334Z,98239.38
2022-12-29T19:11:08.882Z,98235.97
2022-12-29T19:13:35.282Z,98240.38
2022-12-29T19:16:02.022Z,98246.53
2022-12-29T19:18:48.689Z,98246.56
2022-12-29T19:21:15.894Z,98251.94
2022-12-29T19:23:43.004Z,98243.72
2022-12-29T19:26:27.148Z,98255.28
2022-12-29T19:28:53.558Z,98248.88
2022-12-29T19:31:20.116Z,98246.47
2022-12-29T19:33:46.576Z,98247.88
2022-12-29T19:36:15.423Z,98245.09
2022-12-29T19:38:41.993Z,98242.38
2022-12-29T19:41:08.568Z,98244.13
2022-12-29T19:43:34.988Z,98245.31
2022-12-29T19:46:08.137Z,98246.91
2022-12-29T19:48:35.007Z,98239.34
2022-12-29T19:51:10.738Z,98242.38
2022-12-29T19:53:37.938Z,98246.19
2022-12-29T19:56:07.433Z,98250.72
2022-12-29T19:58:35.429Z,98260.13
2022-12-29T20:01:15.131Z,98258.91
2022-12-29T20:03:42.332Z,98264.31
2022-12-29T20:06:10.736Z,98269.91
2022-12-29T20:08:38.461Z,98262.31
2022-12-29T20:11:12.139Z,98248.19
2022-12-29T20:13:39.608Z,98239.97
2022-12-29T20:16:09.825Z,98238.94
2022-12-29T20:18:36.415Z,98222.78
2022-12-29T20:21:14.934Z,98214.41
2022-12-29T20:23:42.090Z,98231.81
2022-12-29T20:26:13.224Z,98229.22
2022-12-29T20:28:39.618Z,98232.84
2022-12-29T20:31:13.857Z,98242.22
2022-12-29T20:33:42.350Z,98242.03
2022-12-29T20:36:19.226Z,98239.88
2022-12-29T20:38:47.666Z,98239.28
2022-12-29T20:41:14.339Z,98241.31
2022-12-29T20:43:41.875Z,98242.28
2022-12-29T20:46:08.591Z,98235.28
2022-12-29T20:48:35.348Z,98237.09
2022-12-29T20:51:02.084Z,98242.09
2022-12-29T20:53:28.748Z,98246.88
2022-12-29T20:56:00.285Z,98246.06
2022-12-29T20:58:26.907Z,98241.31
2022-12-29T21:00:55.076Z,98240.13
2022-12-29T21:03:22.830Z,98239.50
2022-12-29T21:05:49.350Z,98250.13
2022-12-29T21:08:15.729Z,98262.31
2022-12-29T21:10:47.445Z,98261.72
2022-12-29T21:13:14.831Z,98266.13
2022-12-29T21:15:41.310Z,98260.34
2022-12-29T21:18:07.722Z,98267.94
2022-12-29T21:20:34.676Z,98272.53
2022-12-29T21:23:02.536Z,98261.97
2022-12-29T21:25:36.898Z,98270.53
2022-12-29T21:28:07.614Z,98274.16
2022-12-29T21:30:34.260Z,98278.13
2022-12-29T21:33:01.128Z,98278.53
2022-12-29T21:35:27.985Z,98279.31
2022-12-29T21:37:54.543Z,98282.13
2022-12-29T21:40:22.636Z,98276.72
2022-12-29T21:42:49.249Z,98279.53
2022-12-29T21:45:24.676Z,98260.97
2022-12-29T21:48:10.758Z,98261.97
2022-12-29T21:50:59.305Z,98303.94
2022-12-29T21:53:37.648Z,98310.13
2022-12-29T21:56:11.950Z,98306.31
2022-12-29T21:59:01.956Z,98293.97
2022-12-29T22:01:49.139Z,98313.31
2022-12-29T22:04:36.259Z,98308.94
2022-12-29T22:07:22.850Z,98303.13
2022-12-29T22:10:08.351Z,98307.16
2022-12-29T22:12:54.323Z,98318.72
2022-12-29T22:15:21.168Z,98326.13
2022-12-29T22:17:54.962Z,98323.53
2022-12-29T22:20:28.842Z,98300.75
2022-12-29T22:22:55.907Z,98323.13
2022-12-29T22:25:23.354Z,98312.53
2022-12-29T22:27:54.202Z,98324.34
2022-12-29T22:30:22.336Z,98325.91
2022-12-29T22:32:48.921Z,98322.53
2022-12-29T22:35:15.353Z,98331.72
2022-12-29T22:37:43.458Z,98336.50
2022-12-29T22:40:11.043Z,98328.72
2022-12-29T22:42:38.497Z,98328.31
2022-12-29T22:45:06.452Z,98322.56
2022-12-29T22:47:33.014Z,98321.97
2022-12-29T22:50:00.733Z,98319.56
2022-12-29T22:52:27.451Z,98339.31
2022-12-29T22:54:54.175Z,98329.75
2022-12-29T22:57:22.172Z,98329.34
2022-12-29T22:59:54.540Z,98340.31
2022-12-29T23:02:21.306Z,98346.69
2022-12-29T23:05:05.059Z,98333.53
2022-12-29T23:07:34.424Z,98359.88
2022-12-29T23:10:02.099Z,98344.72
2022-12-29T23:12:31.606Z,98346.09
2022-12-29T23:14:59.017Z,98337.53
2022-12-29T23:17:25.985Z,98335.34
2022-12-29T23:19:53.487Z,98347.72
2022-12-29T23:22:20.798Z,98363.47
2022-12-29T23:24:47.477Z,98375.84
2022-12-29T23:27:14.479Z,98365.69
2022-12-29T23:29:41.643Z,98367.66
2022-12-29T23:32:09.087Z,98363.47
2022-12-29T23:34:36.230Z,98365.06
2022-12-29T23:37:03.695Z,98372.66
2022-12-29T23:39:30.876Z,98374.47
2022-12-29T23:42:06.342Z,98365.69
2022-12-29T23:44:35.956Z,98378.22
2022-12-29T23:47:02.854Z,98384.22
2022-12-29T23:49:29.923Z,98381.22
2022-12-29T23:51:57.452Z,98391.59
2022-12-29T23:54:25.971Z,98398.78
2022-12-29T23:56:52.836Z,98393.81
2022-12-29T23:59:20.568Z,98391.63
